sensor_id;sensor_type;location;lat;lon;timestamp;pressure;altitude;pressure_sealevel;temperature;humidity
75192;BME280;63771;52.580;9.734;2023-03-25T00:01:04;99790.22;;;8.21;84.99
75192;BME280;63771;52.580;9.734;2023-03-25T00:03:33;99797.94;;;8.23;85.20
75192;BME280;63771;52.580;9.734;2023-03-25T00:05:59;99797.06;;;8.22;85.33
75192;BME280;63771;52.580;9.734;2023-03-25T00:08:25;99795.41;;;8.23;85.23
75192;BME280;63771;52.580;9.734;2023-03-25T00:10:52;99798.19;;;8.26;84.92
75192;BME280;63771;52.580;9.734;2023-03-25T00:13:18;99793.97;;;8.26;84.99
75192;BME280;63771;52.580;9.734;2023-03-25T00:15:44;99793.97;;;8.26;84.83
75192;BME280;63771;52.580;9.734;2023-03-25T00:18:13;99789.78;;;8.27;84.88
75192;BME280;63771;52.580;9.734;2023-03-25T00:20:38;99799.06;;;8.26;84.81
75192;BME280;63771;52.580;9.734;2023-03-25T00:23:06;99791.34;;;8.25;84.83
75192;BME280;63771;52.580;9.734;2023-03-25T00:25:31;99783.34;;;8.20;84.80
75192;BME280;63771;52.580;9.734;2023-03-25T00:27:57;99792.22;;;8.25;85.48
75192;BME280;63771;52.580;9.734;2023-03-25T00:30:23;99791.97;;;8.22;84.98
75192;BME280;63771;52.580;9.734;2023-03-25T00:32:48;99785.91;;;8.20;84.94
75192;BME280;63771;52.580;9.734;2023-03-25T00:35:14;99776.38;;;8.18;84.74
75192;BME280;63771;52.580;9.734;2023-03-25T00:37:43;99779.59;;;8.15;84.91
75192;BME280;63771;52.580;9.734;2023-03-25T00:40:10;99781.97;;;8.14;85.17
75192;BME280;63771;52.580;9.734;2023-03-25T00:42:35;99785.97;;;8.10;85.27
75192;BME280;63771;52.580;9.734;2023-03-25T00:45:01;99775.56;;;8.07;85.03
75192;BME280;63771;52.580;9.734;2023-03-25T00:47:26;99779.66;;;8.05;85.07
75192;BME280;63771;52.580;9.734;2023-03-25T00:49:52;99784.72;;;8.05;85.31
75192;BME280;63771;52.580;9.734;2023-03-25T00:52:17;99778.41;;;8.00;85.27
75192;BME280;63771;52.580;9.734;2023-03-25T00:54:43;99783.84;;;8.04;85.44
75192;BME280;63771;52.580;9.734;2023-03-25T00:57:10;99778.41;;;8.00;85.26
75192;BME280;63771;52.580;9.734;2023-03-25T00:59:35;99782.81;;;8.02;85.42
75192;BME280;63771;52.580;9.734;2023-03-25T01:02:01;99779.50;;;8.03;85.28
75192;BME280;63771;52.580;9.734;2023-03-25T01:04:27;99783.97;;;8.06;84.96
75192;BME280;63771;52.580;9.734;2023-03-25T01:06:53;99785.97;;;8.10;85.27
75192;BME280;63771;52.580;9.734;2023-03-25T01:09:19;99780.31;;;8.14;85.19
75192;BME280;63771;52.580;9.734;2023-03-25T01:11:46;99781.09;;;8.13;85.09
75192;BME280;63771;52.580;9.734;2023-03-25T01:14:18;99781.25;;;8.15;84.85
75192;BME280;63771;52.580;9.734;2023-03-25T01:16:45;99783.13;;;8.17;84.87
75192;BME280;63771;52.580;9.734;2023-03-25T01:19:11;99786.00;;;8.22;84.60
75192;BME280;63771;52.580;9.734;2023-03-25T01:21:37;99781.28;;;8.26;84.29
75192;BME280;63771;52.580;9.734;2023-03-25T01:24:03;99774.88;;;8.31;83.77
75192;BME280;63771;52.580;9.734;2023-03-25T01:26:29;99774.22;;;8.34;83.77
75192;BME280;63771;52.580;9.734;2023-03-25T01:28:54;99771.28;;;8.40;83.55
75192;BME280;63771;52.580;9.734;2023-03-25T01:31:20;99768.19;;;8.44;83.41
75192;BME280;63771;52.580;9.734;2023-03-25T01:33:47;99766.88;;;8.49;82.92
75192;BME280;63771;52.580;9.734;2023-03-25T01:36:12;99763.81;;;8.53;83.20
75192;BME280;63771;52.580;9.734;2023-03-25T01:38:39;99765.66;;;8.55;83.36
75192;BME280;63771;52.580;9.734;2023-03-25T01:41:05;99754.88;;;8.58;83.41
75192;BME280;63771;52.580;9.734;2023-03-25T01:43:31;99758.53;;;8.61;83.15
75192;BME280;63771;52.580;9.734;2023-03-25T01:45:57;99754.19;;;8.60;83.25
75192;BME280;63771;52.580;9.734;2023-03-25T01:48:27;99756.63;;;8.59;83.20
75192;BME280;63771;52.580;9.734;2023-03-25T01:51:00;99755.84;;;8.60;82.70
75192;BME280;63771;52.580;9.734;2023-03-25T01:53:29;99754.19;;;8.60;82.75
75192;BME280;63771;52.580;9.734;2023-03-25T01:55:56;99749.88;;;8.71;82.09
75192;BME280;63771;52.580;9.734;2023-03-25T01:58:24;99760.28;;;8.74;82.35
75192;BME280;63771;52.580;9.734;2023-03-25T02:00:51;99748.69;;;8.78;82.11
75192;BME280;63771;52.580;9.734;2023-03-25T02:03:19;99754.22;;;8.84;82.08
75192;BME280;63771;52.580;9.734;2023-03-25T02:06:06;99747.03;;;8.90;81.35
75192;BME280;63771;52.580;9.734;2023-03-25T02:08:36;99738.84;;;8.94;81.44
75192;BME280;63771;52.580;9.734;2023-03-25T02:11:03;99744.16;;;8.97;81.78
75192;BME280;63771;52.580;9.734;2023-03-25T02:13:30;99746.81;;;8.99;81.35
75192;BME280;63771;52.580;9.734;2023-03-25T02:38:35;99758.81;;;8.54;87.46
75192;BME280;63771;52.580;9.734;2023-03-25T02:43:56;99750.75;;;8.48;87.81
75192;BME280;63771;52.580;9.734;2023-03-25T02:46:25;99757.50;;;8.48;87.76
75192;BME280;63771;52.580;9.734;2023-03-25T02:49:02;99763.00;;;8.42;88.11
75192;BME280;63771;52.580;9.734;2023-03-25T02:51:33;99742.06;;;8.34;88.35
75192;BME280;63771;52.580;9.734;2023-03-25T02:54:03;99744.34;;;8.42;88.03
75192;BME280;63771;52.580;9.734;2023-03-25T02:56:31;99738.78;;;8.35;88.46
75192;BME280;63771;52.580;9.734;2023-03-25T02:58:58;99738.91;;;8.37;88.45
75192;BME280;63771;52.580;9.734;2023-03-25T03:01:24;99746.75;;;8.40;88.52
75192;BME280;63771;52.580;9.734;2023-03-25T03:03:52;99732.16;;;8.38;88.96
75192;BME280;63771;52.580;9.734;2023-03-25T03:06:18;99734.44;;;8.34;89.00
75192;BME280;63771;52.580;9.734;2023-03-25T03:11:19;99738.63;;;8.34;89.05
75192;BME280;63771;52.580;9.734;2023-03-25T03:16:32;99742.06;;;8.34;88.79
75192;BME280;63771;52.580;9.734;2023-03-25T03:19:12;99735.50;;;8.36;89.10
75192;BME280;63771;52.580;9.734;2023-03-25T03:21:58;99730.41;;;8.36;89.14
75192;BME280;63771;52.580;9.734;2023-03-25T03:24:39;99731.91;;;8.34;89.01
75192;BME280;63771;52.580;9.734;2023-03-25T03:27:14;99727.09;;;8.38;88.47
75192;BME280;63771;52.580;9.734;2023-03-25T03:29:47;99729.63;;;8.38;88.27
75192;BME280;63771;52.580;9.734;2023-03-25T03:32:32;99726.81;;;8.34;88.49
75192;BME280;63771;52.580;9.734;2023-03-25T03:35:05;99710.47;;;8.31;88.31
75192;BME280;63771;52.580;9.734;2023-03-25T03:37:35;99727.09;;;8.38;87.85
75192;BME280;63771;52.580;9.734;2023-03-25T03:40:03;99721.13;;;8.37;88.01
75192;BME280;63771;52.580;9.734;2023-03-25T03:42:36;99733.81;;;8.37;87.38
75192;BME280;63771;52.580;9.734;2023-03-25T03:45:07;99727.69;;;8.35;87.32
75192;BME280;63771;52.580;9.734;2023-03-25T03:47:38;99730.41;;;8.36;87.19
75192;BME280;63771;52.580;9.734;2023-03-25T03:50:10;99723.75;;;8.39;87.50
75192;BME280;63771;52.580;9.734;2023-03-25T03:53:08;99726.19;;;8.37;86.48
75192;BME280;63771;52.580;9.734;2023-03-25T03:55:42;99727.31;;;8.41;86.63
75192;BME280;63771;52.580;9.734;2023-03-25T03:58:17;99726.19;;;8.37;86.72
75192;BME280;63771;52.580;9.734;2023-03-25T04:01:01;99730.41;;;8.36;86.80
75192;BME280;63771;52.580;9.734;2023-03-25T04:03:33;99727.88;;;8.36;86.95
75192;BME280;63771;52.580;9.734;2023-03-25T04:06:10;99727.09;;;8.38;86.99
75192;BME280;63771;52.580;9.734;2023-03-25T04:08:46;99722.59;;;8.35;86.80
75192;BME280;63771;52.580;9.734;2023-03-25T04:11:19;99721.72;;;8.34;86.45
75192;BME280;63771;52.580;9.734;2023-03-25T04:13:48;99719.19;;;8.34;86.19
75192;BME280;63771;52.580;9.734;2023-03-25T04:16:16;99728.59;;;8.35;85.78
75192;BME280;63771;52.580;9.734;2023-03-25T04:18:41;99732.78;;;8.35;85.61
75192;BME280;63771;52.580;9.734;2023-03-25T04:21:08;99736.97;;;8.34;85.62
75192;BME280;63771;52.580;9.734;2023-03-25T04:23:34;99728.25;;;8.31;85.81
75192;BME280;63771;52.580;9.734;2023-03-25T04:26:02;99733.34;;;8.31;85.68
75192;BME280;63771;52.580;9.734;2023-03-25T04:28:28;99734.88;;;8.29;85.52
75192;BME280;63771;52.580;9.734;2023-03-25T04:30:53;99727.03;;;8.26;85.27
75192;BME280;63771;52.580;9.734;2023-03-25T04:33:24;99730.81;;;8.31;84.54
75192;BME280;63771;52.580;9.734;2023-03-25T04:35:50;99730.03;;;8.32;84.70
75192;BME280;63771;52.580;9.734;2023-03-25T04:38:17;99730.13;;;8.33;84.38
75192;BME280;63771;52.580;9.734;2023-03-25T04:40:43;99728.38;;;8.32;84.49
75192;BME280;63771;52.580;9.734;2023-03-25T04:43:15;99730.41;;;8.36;83.66
75192;BME280;63771;52.580;9.734;2023-03-25T04:45:41;99736.38;;;8.37;83.97
75192;BME280;63771;52.580;9.734;2023-03-25T04:48:27;99727.09;;;8.38;83.49
75192;BME280;63771;52.580;9.734;2023-03-25T04:50:55;99733.69;;;8.35;82.42
75192;BME280;63771;52.580;9.734;2023-03-25T04:53:22;99732.16;;;8.38;83.09
75192;BME280;63771;52.580;9.734;2023-03-25T04:55:47;99724.66;;;8.39;83.56
75192;BME280;63771;52.580;9.734;2023-03-25T04:58:14;99717.16;;;8.41;83.11
75192;BME280;63771;52.580;9.734;2023-03-25T05:00:41;99724.09;;;8.43;82.73
75192;BME280;63771;52.580;9.734;2023-03-25T05:03:08;99707.53;;;8.36;82.54
75192;BME280;63771;52.580;9.734;2023-03-25T05:05:33;99713.59;;;8.39;82.00
75192;BME280;63771;52.580;9.734;2023-03-25T05:07:59;99718.91;;;8.42;82.81
75192;BME280;63771;52.580;9.734;2023-03-25T05:10:26;99726.31;;;8.39;82.05
75192;BME280;63771;52.580;9.734;2023-03-25T05:13:06;99726.19;;;8.37;81.91
75192;BME280;63771;52.580;9.734;2023-03-25T05:15:33;99712.78;;;8.28;81.69
75192;BME280;63771;52.580;9.734;2023-03-25T05:18:06;99731.69;;;8.31;81.25
75192;BME280;63771;52.580;9.734;2023-03-25T05:20:34;99732.22;;;8.27;81.65
75192;BME280;63771;52.580;9.734;2023-03-25T05:23:02;99726.69;;;8.21;81.69
75192;BME280;63771;52.580;9.734;2023-03-25T05:25:29;99728.00;;;8.16;81.27
75192;BME280;63771;52.580;9.734;2023-03-25T05:27:58;99726.41;;;8.06;81.82
75192;BME280;63771;52.580;9.734;2023-03-25T05:30:23;99736.69;;;8.08;81.91
75192;BME280;63771;52.580;9.734;2023-03-25T05:32:48;99741.56;;;8.05;82.27
75192;BME280;63771;52.580;9.734;2023-03-25T05:35:15;99738.00;;;8.03;82.36
75192;BME280;63771;52.580;9.734;2023-03-25T05:37:40;99739.53;;;8.01;82.40
75192;BME280;63771;52.580;9.734;2023-03-25T05:40:07;99744.63;;;8.01;82.73
75192;BME280;63771;52.580;9.734;2023-03-25T05:42:33;99745.50;;;8.01;83.06
75192;BME280;63771;52.580;9.734;2023-03-25T05:44:58;99741.56;;;8.05;82.03
75192;BME280;63771;52.580;9.734;2023-03-25T05:47:24;99740.78;;;8.06;82.11
75192;BME280;63771;52.580;9.734;2023-03-25T05:49:50;99755.16;;;8.17;82.14
75192;BME280;63771;52.580;9.734;2023-03-25T05:52:17;99748.00;;;8.23;82.35
75192;BME280;63771;52.580;9.734;2023-03-25T05:54:43;99748.25;;;8.26;81.73
75192;BME280;63771;52.580;9.734;2023-03-25T05:57:10;99750.25;;;8.30;81.75
75192;BME280;63771;52.580;9.734;2023-03-25T05:59:36;99759.75;;;8.33;81.72
75192;BME280;63771;52.580;9.734;2023-03-25T06:02:06;99763.44;;;8.36;80.62
75192;BME280;63771;52.580;9.734;2023-03-25T06:04:35;99760.13;;;8.38;80.55
75192;BME280;63771;52.580;9.734;2023-03-25T06:07:05;99760.03;;;8.36;79.92
75192;BME280;63771;52.580;9.734;2023-03-25T06:09:38;99775.03;;;8.45;80.98
75192;BME280;63771;52.580;9.734;2023-03-25T06:12:15;99766.00;;;8.48;79.81
75192;BME280;63771;52.580;9.734;2023-03-25T06:14:41;99762.91;;;8.52;80.26
75192;BME280;63771;52.580;9.734;2023-03-25T06:17:11;99759.06;;;8.46;79.91
75192;BME280;63771;52.580;9.734;2023-03-25T06:19:36;99762.91;;;8.52;80.18
75192;BME280;63771;52.580;9.734;2023-03-25T06:22:06;99769.22;;;8.57;80.00
75192;BME280;63771;52.580;9.734;2023-03-25T06:24:34;99766.69;;;8.57;79.63
75192;BME280;63771;52.580;9.734;2023-03-25T06:27:00;99767.69;;;8.59;80.61
75192;BME280;63771;52.580;9.734;2023-03-25T06:29:25;99769.78;;;8.65;80.17
75192;BME280;63771;52.580;9.734;2023-03-25T06:31:51;99761.63;;;8.69;79.83
75192;BME280;63771;52.580;9.734;2023-03-25T06:34:16;99759.41;;;8.74;79.86
75192;BME280;63771;52.580;9.734;2023-03-25T06:36:42;99765.81;;;8.80;79.80
75192;BME280;63771;52.580;9.734;2023-03-25T06:39:07;99761.63;;;8.81;79.43
75192;BME280;63771;52.580;9.734;2023-03-25T06:41:33;99765.81;;;8.80;79.60
75192;BME280;63771;52.580;9.734;2023-03-25T06:44:00;99771.16;;;8.83;79.60
75192;BME280;63771;52.580;9.734;2023-03-25T06:46:25;99766.16;;;8.85;79.49
75192;BME280;63771;52.580;9.734;2023-03-25T06:48:50;99763.53;;;8.83;79.15
75192;BME280;63771;52.580;9.734;2023-03-25T06:51:16;99774.03;;;8.88;79.49
75192;BME280;63771;52.580;9.734;2023-03-25T06:53:41;99769.38;;;8.82;78.97
75192;BME280;63771;52.580;9.734;2023-03-25T06:56:07;99769.38;;;8.82;78.69
75192;BME280;63771;52.580;9.734;2023-03-25T06:58:32;99770.59;;;8.87;79.41
75192;BME280;63771;52.580;9.734;2023-03-25T07:01:01;99766.59;;;8.91;79.84
75192;BME280;63771;52.580;9.734;2023-03-25T07:03:30;99764.75;;;8.88;79.31
75192;BME280;63771;52.580;9.734;2023-03-25T07:05:56;99759.41;;;8.85;80.06
75192;BME280;63771;52.580;9.734;2023-03-25T07:08:21;99759.22;;;8.82;80.40
75192;BME280;63771;52.580;9.734;2023-03-25T07:10:46;99761.28;;;8.76;79.04
75192;BME280;63771;52.580;9.734;2023-03-25T07:13:11;99762.06;;;8.75;79.53
75192;BME280;63771;52.580;9.734;2023-03-25T07:15:37;99760.28;;;8.74;79.81
75192;BME280;63771;52.580;9.734;2023-03-25T07:18:03;99762.50;;;8.81;80.39
75192;BME280;63771;52.580;9.734;2023-03-25T07:20:28;99755.66;;;8.80;79.25
75192;BME280;63771;52.580;9.734;2023-03-25T07:22:54;99764.94;;;8.92;79.92
75192;BME280;63771;52.580;9.734;2023-03-25T07:25:20;99774.47;;;8.94;78.22
75192;BME280;63771;52.580;9.734;2023-03-25T07:27:46;99770.69;;;9.01;78.60
75192;BME280;63771;52.580;9.734;2023-03-25T07:30:11;99764.53;;;9.09;79.02
75192;BME280;63771;52.580;9.734;2023-03-25T07:32:37;99748.13;;;9.05;76.87
75192;BME280;63771;52.580;9.734;2023-03-25T07:35:03;99768.47;;;9.17;78.23
75192;BME280;63771;52.580;9.734;2023-03-25T07:37:28;99768.81;;;9.22;77.59
75192;BME280;63771;52.580;9.734;2023-03-25T07:39:54;99776.69;;;9.25;77.32
75192;BME280;63771;52.580;9.734;2023-03-25T07:42:19;99772.47;;;9.25;76.74
75192;BME280;63771;52.580;9.734;2023-03-25T07:44:45;99779.31;;;9.26;77.25
75192;BME280;63771;52.580;9.734;2023-03-25T07:47:10;99779.56;;;9.29;76.85
75192;BME280;63771;52.580;9.734;2023-03-25T07:49:35;99777.31;;;9.34;77.30
75192;BME280;63771;52.580;9.734;2023-03-25T07:52:00;99777.00;;;9.41;76.55
75192;BME280;63771;52.580;9.734;2023-03-25T07:54:26;99772.22;;;9.46;76.14
75192;BME280;63771;52.580;9.734;2023-03-25T07:56:52;99766.13;;;9.44;75.70
75192;BME280;63771;52.580;9.734;2023-03-25T07:59:18;99773.78;;;9.55;76.31
75192;BME280;63771;52.580;9.734;2023-03-25T08:01:44;99776.41;;;9.57;75.23
75192;BME280;63771;52.580;9.734;2023-03-25T08:04:09;99767.44;;;9.62;75.86
75192;BME280;63771;52.580;9.734;2023-03-25T08:06:37;99775.72;;;9.71;77.24
75192;BME280;63771;52.580;9.734;2023-03-25T08:09:02;99777.44;;;9.84;76.23
75192;BME280;63771;52.580;9.734;2023-03-25T08:11:27;99774.53;;;9.91;75.56
75192;BME280;63771;52.580;9.734;2023-03-25T08:13:53;99767.75;;;10.03;75.22
75192;BME280;63771;52.580;9.734;2023-03-25T08:16:18;99772.38;;;10.09;74.90
75192;BME280;63771;52.580;9.734;2023-03-25T08:18:43;99778.44;;;10.11;74.47
75192;BME280;63771;52.580;9.734;2023-03-25T08:21:17;99800.25;;;10.19;73.78
75192;BME280;63771;52.580;9.734;2023-03-25T08:23:46;99782.19;;;10.16;74.12
75192;BME280;63771;52.580;9.734;2023-03-25T08:26:11;99790.00;;;10.06;73.48
75192;BME280;63771;52.580;9.734;2023-03-25T08:28:37;99782.25;;;10.04;74.72
75192;BME280;63771;52.580;9.734;2023-03-25T08:31:05;99790.00;;;10.06;75.02
75192;BME280;63771;52.580;9.734;2023-03-25T08:33:30;99790.22;;;10.09;75.51
75192;BME280;63771;52.580;9.734;2023-03-25T08:35:59;99788.44;;;10.08;74.35
75192;BME280;63771;52.580;9.734;2023-03-25T08:38:24;99791.66;;;10.05;74.65
75192;BME280;63771;52.580;9.734;2023-03-25T08:40:54;99783.13;;;10.05;74.60
75192;BME280;63771;52.580;9.734;2023-03-25T08:43:19;99782.81;;;10.00;73.82
75192;BME280;63771;52.580;9.734;2023-03-25T08:45:46;99787.13;;;10.01;74.33
75192;BME280;63771;52.580;9.734;2023-03-25T08:48:11;99775.72;;;10.08;73.76
75192;BME280;63771;52.580;9.734;2023-03-25T08:50:36;99775.34;;;10.15;74.32
75192;BME280;63771;52.580;9.734;2023-03-25T08:53:02;99770.22;;;10.15;74.84
75192;BME280;63771;52.580;9.734;2023-03-25T08:55:27;99768.19;;;10.23;74.10
75192;BME280;63771;52.580;9.734;2023-03-25T08:57:52;99781.28;;;10.27;73.79
75192;BME280;63771;52.580;9.734;2023-03-25T09:00:18;99774.25;;;10.36;73.41
75192;BME280;63771;52.580;9.734;2023-03-25T09:02:48;99779.19;;;10.47;73.24
75192;BME280;63771;52.580;9.734;2023-03-25T09:05:13;99774.09;;;10.47;73.08
75192;BME280;63771;52.580;9.734;2023-03-25T09:07:40;99780.97;;;10.48;72.10
75192;BME280;63771;52.580;9.734;2023-03-25T09:10:06;99771.31;;;10.43;72.00
75192;BME280;63771;52.580;9.734;2023-03-25T09:12:31;99778.25;;;10.33;71.20
75192;BME280;63771;52.580;9.734;2023-03-25T09:14:57;99774.06;;;10.22;72.40
75192;BME280;63771;52.580;9.734;2023-03-25T09:17:22;99769.13;;;10.11;72.42
75192;BME280;63771;52.580;9.734;2023-03-25T09:19:47;99774.91;;;10.09;73.30
75192;BME280;63771;52.580;9.734;2023-03-25T09:22:13;99776.69;;;10.10;73.46
75192;BME280;63771;52.580;9.734;2023-03-25T09:24:39;99760.03;;;10.15;74.07
75192;BME280;63771;52.580;9.734;2023-03-25T09:27:05;99766.53;;;10.23;73.34
75192;BME280;63771;52.580;9.734;2023-03-25T09:29:30;99774.25;;;10.36;74.61
75192;BME280;63771;52.580;9.734;2023-03-25T09:31:56;99774.50;;;10.53;73.33
75192;BME280;63771;52.580;9.734;2023-03-25T09:34:25;99770.63;;;10.71;73.62
75192;BME280;63771;52.580;9.734;2023-03-25T09:36:52;99772.19;;;10.95;74.01
75192;BME280;63771;52.580;9.734;2023-03-25T09:39:18;99768.88;;;11.23;73.61
75192;BME280;63771;52.580;9.734;2023-03-25T09:44:28;99765.69;;;11.54;70.14
75192;BME280;63771;52.580;9.734;2023-03-25T09:46:57;99769.09;;;11.67;70.91
75192;BME280;63771;52.580;9.734;2023-03-25T09:49:35;99759.88;;;11.69;69.71
75192;BME280;63771;52.580;9.734;2023-03-25T09:52:02;99766.97;;;11.60;68.28
75192;BME280;63771;52.580;9.734;2023-03-25T09:54:35;99776.19;;;11.58;69.77
75192;BME280;63771;52.580;9.734;2023-03-25T09:57:07;99782.81;;;11.55;70.15
75192;BME280;63771;52.580;9.734;2023-03-25T09:59:40;99769.22;;;11.56;70.96
75192;BME280;63771;52.580;9.734;2023-03-25T10:05:13;99753.25;;;11.45;69.83
75192;BME280;63771;52.580;9.734;2023-03-25T10:10:44;99807.53;;;10.89;70.29
75192;BME280;63771;52.580;9.734;2023-03-25T10:13:36;99812.44;;;10.48;69.57
75192;BME280;63771;52.580;9.734;2023-03-25T10:16:18;99814.94;;;9.50;73.50
75192;BME280;63771;52.580;9.734;2023-03-25T10:19:09;99818.25;;;8.78;77.26
75192;BME280;63771;52.580;9.734;2023-03-25T10:22:05;99819.16;;;8.23;80.01
75192;BME280;63771;52.580;9.734;2023-03-25T10:24:45;99813.13;;;8.11;82.40
75192;BME280;63771;52.580;9.734;2023-03-25T10:27:18;99804.44;;;7.97;82.15
75192;BME280;63771;52.580;9.734;2023-03-25T10:30:00;99802.63;;;8.06;82.94
75192;BME280;63771;52.580;9.734;2023-03-25T10:32:36;99798.31;;;8.05;82.48
75192;BME280;63771;52.580;9.734;2023-03-25T10:35:04;99798.88;;;8.13;83.39
75192;BME280;63771;52.580;9.734;2023-03-25T10:37:33;99794.97;;;8.28;83.30
75192;BME280;63771;52.580;9.734;2023-03-25T10:40:37;99802.72;;;8.52;83.86
75192;BME280;63771;52.580;9.734;2023-03-25T10:43:14;99798.97;;;8.70;83.95
75192;BME280;63771;52.580;9.734;2023-03-25T10:45:44;99793.94;;;8.94;82.78
75192;BME280;63771;52.580;9.734;2023-03-25T10:48:21;99783.31;;;9.11;82.05
75192;BME280;63771;52.580;9.734;2023-03-25T10:50:49;99779.09;;;9.23;79.90
75192;BME280;63771;52.580;9.734;2023-03-25T10:53:26;99770.38;;;9.31;78.81
75192;BME280;63771;52.580;9.734;2023-03-25T10:56:11;99773.56;;;9.40;78.76
75192;BME280;63771;52.580;9.734;2023-03-25T10:58:39;99773.53;;;9.52;77.32
75192;BME280;63771;52.580;9.734;2023-03-25T11:01:16;99771.75;;;9.63;77.44
75192;BME280;63771;52.580;9.734;2023-03-25T11:03:42;99770.25;;;9.78;75.64
75192;BME280;63771;52.580;9.734;2023-03-25T11:06:23;99772.31;;;9.96;75.04
75192;BME280;63771;52.580;9.734;2023-03-25T11:11:31;99773.75;;;10.17;72.76
75192;BME280;63771;52.580;9.734;2023-03-25T11:13:57;99761.50;;;10.36;72.92
75192;BME280;63771;52.580;9.734;2023-03-25T11:16:22;99762.75;;;10.55;71.59
75192;BME280;63771;52.580;9.734;2023-03-25T11:18:50;99766.00;;;10.65;72.24
75192;BME280;63771;52.580;9.734;2023-03-25T11:21:17;99757.47;;;10.78;70.42
75192;BME280;63771;52.580;9.734;2023-03-25T11:23:45;99756.81;;;10.81;69.66
75192;BME280;63771;52.580;9.734;2023-03-25T11:26:20;99758.25;;;10.90;70.16
75192;BME280;63771;52.580;9.734;2023-03-25T11:28:53;99754.53;;;10.85;67.42
75192;BME280;63771;52.580;9.734;2023-03-25T11:31:21;99758.09;;;10.87;67.70
75192;BME280;63771;52.580;9.734;2023-03-25T11:39:13;99732.97;;;11.07;68.21
75192;BME280;63771;52.580;9.734;2023-03-25T11:41:40;99743.25;;;11.08;67.50
75192;BME280;63771;52.580;9.734;2023-03-25T11:44:06;99750.63;;;11.04;66.07
75192;BME280;63771;52.580;9.734;2023-03-25T11:46:31;99757.97;;;10.99;68.21
75192;BME280;63771;52.580;9.734;2023-03-25T11:49:08;99753.94;;;10.89;67.90
75192;BME280;63771;52.580;9.734;2023-03-25T11:51:34;99763.28;;;10.76;69.08
75192;BME280;63771;52.580;9.734;2023-03-25T11:54:05;99757.16;;;10.74;69.18
75192;BME280;63771;52.580;9.734;2023-03-25T11:56:34;99757.25;;;10.75;69.45
75192;BME280;63771;52.580;9.734;2023-03-25T11:59:01;99759.81;;;10.75;69.52
75192;BME280;63771;52.580;9.734;2023-03-25T12:01:36;99759.53;;;10.70;67.75
75192;BME280;63771;52.580;9.734;2023-03-25T12:04:17;99767.06;;;10.69;68.61
75192;BME280;63771;52.580;9.734;2023-03-25T12:09:21;99766.28;;;10.70;69.35
75192;BME280;63771;52.580;9.734;2023-03-25T12:23:01;99759.47;;;11.09;70.76
75192;BME280;63771;52.580;9.734;2023-03-25T12:28:17;99760.31;;;10.96;66.93
75192;BME280;63771;52.580;9.734;2023-03-25T12:30:59;99730.59;;;10.96;68.12
75192;BME280;63771;52.580;9.734;2023-03-25T12:33:52;99727.66;;;11.04;69.34
75192;BME280;63771;52.580;9.734;2023-03-25T12:36:28;99728.91;;;11.10;69.19
75192;BME280;63771;52.580;9.734;2023-03-25T12:39:29;99725.38;;;11.21;69.19
75192;BME280;63771;52.580;9.734;2023-03-25T12:42:22;99721.53;;;11.28;68.83
75192;BME280;63771;52.580;9.734;2023-03-25T12:47:23;99722.09;;;11.50;68.57
75192;BME280;63771;52.580;9.734;2023-03-25T12:50:11;99724.00;;;11.68;69.06
75192;BME280;63771;52.580;9.734;2023-03-25T12:55:51;99715.50;;;11.95;65.86
75192;BME280;63771;52.580;9.734;2023-03-25T13:01:12;99713.63;;;11.93;66.13
75192;BME280;63771;52.580;9.734;2023-03-25T13:11:38;99712.97;;;11.82;63.46
75192;BME280;63771;52.580;9.734;2023-03-25T13:14:10;99712.97;;;11.82;63.82
75192;BME280;63771;52.580;9.734;2023-03-25T13:16:41;99705.41;;;11.84;65.10
75192;BME280;63771;52.580;9.734;2023-03-25T13:19:21;99710.63;;;11.72;64.34
75192;BME280;63771;52.580;9.734;2023-03-25T13:22:07;99715.53;;;11.69;66.39
75192;BME280;63771;52.580;9.734;2023-03-25T13:24:45;99715.16;;;11.63;67.92
75192;BME280;63771;52.580;9.734;2023-03-25T13:27:12;99709.25;;;11.36;69.76
75192;BME280;63771;52.580;9.734;2023-03-25T13:32:33;99714.97;;;11.05;71.07
75192;BME280;63771;52.580;9.734;2023-03-25T13:35:14;99731.50;;;10.97;71.21
75192;BME280;63771;52.580;9.734;2023-03-25T13:37:45;99719.41;;;10.94;69.73
75192;BME280;63771;52.580;9.734;2023-03-25T13:40:33;99732.47;;;10.99;71.33
75192;BME280;63771;52.580;9.734;2023-03-25T13:43:05;99737.25;;;10.94;74.00
75192;BME280;63771;52.580;9.734;2023-03-25T13:45:59;99716.16;;;10.84;74.73
75192;BME280;63771;52.580;9.734;2023-03-25T13:48:36;99724.81;;;10.86;72.48
75192;BME280;63771;52.580;9.734;2023-03-25T13:51:04;99720.97;;;10.92;72.88
75192;BME280;63771;52.580;9.734;2023-03-25T13:53:54;99717.22;;;11.01;72.02
75192;BME280;63771;52.580;9.734;2023-03-25T13:56:37;99726.44;;;11.12;70.46
75192;BME280;63771;52.580;9.734;2023-03-25T14:01:49;99733.16;;;11.23;69.53
75192;BME280;63771;52.580;9.734;2023-03-25T14:13:02;99744.91;;;11.21;68.00
75192;BME280;63771;52.580;9.734;2023-03-25T14:15:31;99756.22;;;11.24;68.07
75192;BME280;63771;52.580;9.734;2023-03-25T14:17:59;99747.25;;;11.31;67.97
75192;BME280;63771;52.580;9.734;2023-03-25T14:20:36;99752.78;;;11.24;67.24
75192;BME280;63771;52.580;9.734;2023-03-25T14:23:05;99755.69;;;11.17;67.83
75192;BME280;63771;52.580;9.734;2023-03-25T14:25:36;99758.25;;;11.17;68.77
75192;BME280;63771;52.580;9.734;2023-03-25T14:28:03;99749.91;;;11.06;68.79
75192;BME280;63771;52.580;9.734;2023-03-25T14:30:30;99745.78;;;10.95;68.67
75192;BME280;63771;52.580;9.734;2023-03-25T14:32:56;99751.59;;;10.92;69.34
75192;BME280;63771;52.580;9.734;2023-03-25T14:43:25;99741.78;;;10.98;70.88
75192;BME280;63771;52.580;9.734;2023-03-25T14:56:56;99742.44;;;11.49;71.01
75192;BME280;63771;52.580;9.734;2023-03-25T14:59:28;99736.75;;;11.40;70.95
75192;BME280;63771;52.580;9.734;2023-03-25T15:02:03;99739.97;;;11.37;71.22
75192;BME280;63771;52.580;9.734;2023-03-25T15:04:32;99738.13;;;11.35;71.13
75192;BME280;63771;52.580;9.734;2023-03-25T15:07:00;99737.63;;;11.40;71.24
75192;BME280;63771;52.580;9.734;2023-03-25T15:09:26;99731.56;;;11.38;70.49
75192;BME280;63771;52.580;9.734;2023-03-25T15:11:59;99734.09;;;11.38;69.37
75192;BME280;63771;52.580;9.734;2023-03-25T15:14:32;99729.38;;;11.44;71.60